sensor_id;sensor_type;location;lat;lon;timestamp;P1;durP1;ratioP1;P2;durP2;ratioP2
23988;SDS011;12202;52.136;5.592;2023-04-01T00:01:38;30.98;;;17.98;;
23988;SDS011;12202;52.136;5.592;2023-04-01T00:04:04;37.22;;;17.55;;
23988;SDS011;12202;52.136;5.592;2023-04-01T00:06:30;38.22;;;18.85;;
23988;SDS011;12202;52.136;5.592;2023-04-01T00:08:56;36.47;;;16.95;;
23988;SDS011;12202;52.136;5.592;2023-04-01T00:11:22;38.35;;;17.83;;
23988;SDS011;12202;52.136;5.592;2023-04-01T00:13:49;36.25;;;19.30;;
23988;SDS011;12202;52.136;5.592;2023-04-01T00:16:15;48.58;;;19.92;;
23988;SDS011;12202;52.136;5.592;2023-04-01T00:18:41;44.22;;;20.13;;
23988;SDS011;12202;52.136;5.592;2023-04-01T00:21:07;41.45;;;20.45;;
23988;SDS011;12202;52.136;5.592;2023-04-01T00:23:33;47.28;;;20.52;;
23988;SDS011;12202;52.136;5.592;2023-04-01T00:26:00;48.45;;;19.65;;
23988;SDS011;12202;52.136;5.592;2023-04-01T00:28:27;46.13;;;21.42;;
23988;SDS011;12202;52.136;5.592;2023-04-01T00:30:53;50.17;;;22.65;;
23988;SDS011;12202;52.136;5.592;2023-04-01T00:33:19;48.13;;;21.90;;
23988;SDS011;12202;52.136;5.592;2023-04-01T00:35:45;48.83;;;22.58;;
23988;SDS011;12202;52.136;5.592;2023-04-01T00:38:11;48.67;;;21.63;;
23988;SDS011;12202;52.136;5.592;2023-04-01T00:40:41;51.47;;;22.38;;
23988;SDS011;12202;52.136;5.592;2023-04-01T00:43:14;46.30;;;21.25;;
23988;SDS011;12202;52.136;5.592;2023-04-01T00:45:42;54.63;;;21.42;;
23988;SDS011;12202;52.136;5.592;2023-04-01T00:48:18;51.90;;;21.10;;
23988;SDS011;12202;52.136;5.592;2023-04-01T00:50:48;53.03;;;21.40;;
23988;SDS011;12202;52.136;5.592;2023-04-01T00:53:16;56.53;;;23.90;;
23988;SDS011;12202;52.136;5.592;2023-04-01T00:55:44;55.20;;;24.48;;
23988;SDS011;12202;52.136;5.592;2023-04-01T00:58:14;62.97;;;25.30;;
23988;SDS011;12202;52.136;5.592;2023-04-01T01:00:40;66.47;;;25.23;;
23988;SDS011;12202;52.136;5.592;2023-04-01T01:03:06;73.10;;;27.73;;
23988;SDS011;12202;52.136;5.592;2023-04-01T01:05:42;80.38;;;30.80;;
23988;SDS011;12202;52.136;5.592;2023-04-01T01:10:55;85.10;;;31.58;;
23988;SDS011;12202;52.136;5.592;2023-04-01T01:13:32;84.25;;;31.45;;
23988;SDS011;12202;52.136;5.592;2023-04-01T01:16:14;85.88;;;34.40;;
23988;SDS011;12202;52.136;5.592;2023-04-01T01:21:19;84.50;;;31.98;;
23988;SDS011;12202;52.136;5.592;2023-04-01T01:29:11;85.95;;;33.55;;
23988;SDS011;12202;52.136;5.592;2023-04-01T01:34:31;84.60;;;35.10;;
23988;SDS011;12202;52.136;5.592;2023-04-01T01:37:05;93.35;;;35.63;;
23988;SDS011;12202;52.136;5.592;2023-04-01T01:39:32;90.38;;;35.78;;
23988;SDS011;12202;52.136;5.592;2023-04-01T01:42:01;98.43;;;35.58;;
23988;SDS011;12202;52.136;5.592;2023-04-01T01:44:28;85.35;;;34.92;;
23988;SDS011;12202;52.136;5.592;2023-04-01T01:46:54;82.13;;;33.50;;
23988;SDS011;12202;52.136;5.592;2023-04-01T01:49:21;87.72;;;34.08;;
23988;SDS011;12202;52.136;5.592;2023-04-01T01:51:48;81.63;;;32.63;;
23988;SDS011;12202;52.136;5.592;2023-04-01T01:54:14;90.15;;;31.80;;
23988;SDS011;12202;52.136;5.592;2023-04-01T01:56:41;74.95;;;29.88;;
23988;SDS011;12202;52.136;5.592;2023-04-01T01:59:08;69.28;;;28.48;;
23988;SDS011;12202;52.136;5.592;2023-04-01T02:01:37;79.60;;;30.55;;
23988;SDS011;12202;52.136;5.592;2023-04-01T02:04:05;66.10;;;28.63;;
23988;SDS011;12202;52.136;5.592;2023-04-01T02:06:32;65.40;;;28.10;;
23988;SDS011;12202;52.136;5.592;2023-04-01T02:09:00;67.13;;;29.40;;
23988;SDS011;12202;52.136;5.592;2023-04-01T02:11:35;60.13;;;26.55;;
23988;SDS011;12202;52.136;5.592;2023-04-01T02:14:04;54.00;;;24.58;;
23988;SDS011;12202;52.136;5.592;2023-04-01T02:16:33;56.53;;;24.73;;
23988;SDS011;12202;52.136;5.592;2023-04-01T02:19:01;61.50;;;26.02;;
23988;SDS011;12202;52.136;5.592;2023-04-01T02:21:32;62.55;;;26.08;;
23988;SDS011;12202;52.136;5.592;2023-04-01T02:23:58;56.42;;;25.73;;
23988;SDS011;12202;52.136;5.592;2023-04-01T02:26:26;62.30;;;26.40;;
23988;SDS011;12202;52.136;5.592;2023-04-01T02:28:52;55.38;;;25.33;;
23988;SDS011;12202;52.136;5.592;2023-04-01T02:31:19;54.58;;;25.13;;
23988;SDS011;12202;52.136;5.592;2023-04-01T02:33:45;58.55;;;26.70;;
23988;SDS011;12202;52.136;5.592;2023-04-01T02:36:12;53.70;;;25.48;;
23988;SDS011;12202;52.136;5.592;2023-04-01T02:38:39;56.78;;;25.17;;
23988;SDS011;12202;52.136;5.592;2023-04-01T02:41:06;59.70;;;25.10;;
23988;SDS011;12202;52.136;5.592;2023-04-01T02:43:32;49.03;;;24.75;;
23988;SDS011;12202;52.136;5.592;2023-04-01T02:45:58;55.97;;;25.35;;
23988;SDS011;12202;52.136;5.592;2023-04-01T02:48:24;50.60;;;23.05;;
23988;SDS011;12202;52.136;5.592;2023-04-01T02:50:50;55.22;;;26.13;;
23988;SDS011;12202;52.136;5.592;2023-04-01T02:53:16;54.95;;;23.58;;
23988;SDS011;12202;52.136;5.592;2023-04-01T02:55:42;50.10;;;23.85;;
23988;SDS011;12202;52.136;5.592;2023-04-01T02:58:09;56.42;;;22.05;;
23988;SDS011;12202;52.136;5.592;2023-04-01T03:00:35;44.58;;;20.88;;
23988;SDS011;12202;52.136;5.592;2023-04-01T03:03:01;38.10;;;18.63;;
23988;SDS011;12202;52.136;5.592;2023-04-01T03:05:27;40.15;;;19.38;;
23988;SDS011;12202;52.136;5.592;2023-04-01T03:07:53;40.75;;;20.60;;
23988;SDS011;12202;52.136;5.592;2023-04-01T03:10:20;44.05;;;20.80;;
23988;SDS011;12202;52.136;5.592;2023-04-01T03:12:46;39.17;;;19.88;;
23988;SDS011;12202;52.136;5.592;2023-04-01T03:15:12;42.72;;;19.40;;
23988;SDS011;12202;52.136;5.592;2023-04-01T03:17:40;39.13;;;19.58;;
23988;SDS011;12202;52.136;5.592;2023-04-01T03:20:06;39.42;;;19.27;;
23988;SDS011;12202;52.136;5.592;2023-04-01T03:22:33;36.88;;;18.67;;
23988;SDS011;12202;52.136;5.592;2023-04-01T03:25:00;38.50;;;18.67;;
23988;SDS011;12202;52.136;5.592;2023-04-01T03:27:26;38.42;;;18.85;;
23988;SDS011;12202;52.136;5.592;2023-04-01T03:29:52;36.63;;;19.10;;
23988;SDS011;12202;52.136;5.592;2023-04-01T03:32:18;33.80;;;17.90;;
23988;SDS011;12202;52.136;5.592;2023-04-01T03:34:44;34.90;;;17.00;;
23988;SDS011;12202;52.136;5.592;2023-04-01T03:37:10;33.03;;;16.92;;
23988;SDS011;12202;52.136;5.592;2023-04-01T03:39:36;35.28;;;16.27;;
23988;SDS011;12202;52.136;5.592;2023-04-01T03:42:02;35.30;;;16.48;;
23988;SDS011;12202;52.136;5.592;2023-04-01T03:44:31;33.70;;;15.68;;
23988;SDS011;12202;52.136;5.592;2023-04-01T03:46:58;34.63;;;16.92;;
23988;SDS011;12202;52.136;5.592;2023-04-01T03:49:24;31.42;;;15.68;;
23988;SDS011;12202;52.136;5.592;2023-04-01T03:51:50;34.42;;;17.13;;
23988;SDS011;12202;52.136;5.592;2023-04-01T03:54:16;31.15;;;15.80;;
23988;SDS011;12202;52.136;5.592;2023-04-01T03:56:43;35.83;;;16.10;;
23988;SDS011;12202;52.136;5.592;2023-04-01T03:59:09;33.38;;;16.38;;
23988;SDS011;12202;52.136;5.592;2023-04-01T04:01:35;32.15;;;16.00;;
23988;SDS011;12202;52.136;5.592;2023-04-01T04:04:01;33.92;;;15.38;;
23988;SDS011;12202;52.136;5.592;2023-04-01T04:06:27;31.05;;;15.57;;
23988;SDS011;12202;52.136;5.592;2023-04-01T04:08:53;34.45;;;15.95;;
23988;SDS011;12202;52.136;5.592;2023-04-01T04:11:20;33.97;;;14.55;;
23988;SDS011;12202;52.136;5.592;2023-04-01T04:13:46;31.60;;;15.27;;
23988;SDS011;12202;52.136;5.592;2023-04-01T04:16:12;32.60;;;14.95;;
23988;SDS011;12202;52.136;5.592;2023-04-01T04:18:39;30.65;;;15.00;;
23988;SDS011;12202;52.136;5.592;2023-04-01T04:21:05;27.63;;;15.25;;
23988;SDS011;12202;52.136;5.592;2023-04-01T04:23:31;36.67;;;17.00;;
23988;SDS011;12202;52.136;5.592;2023-04-01T04:26:08;32.72;;;16.42;;
23988;SDS011;12202;52.136;5.592;2023-04-01T04:28:34;31.45;;;15.30;;
23988;SDS011;12202;52.136;5.592;2023-04-01T04:31:01;29.23;;;16.10;;
23988;SDS011;12202;52.136;5.592;2023-04-01T04:33:27;36.80;;;17.58;;
23988;SDS011;12202;52.136;5.592;2023-04-01T04:35:57;39.55;;;18.73;;
23988;SDS011;12202;52.136;5.592;2023-04-01T04:38:23;49.65;;;22.48;;
23988;SDS011;12202;52.136;5.592;2023-04-01T04:40:50;42.65;;;19.70;;
23988;SDS011;12202;52.136;5.592;2023-04-01T04:43:16;48.88;;;20.50;;
23988;SDS011;12202;52.136;5.592;2023-04-01T04:45:43;47.90;;;21.20;;
23988;SDS011;12202;52.136;5.592;2023-04-01T04:48:10;52.15;;;22.08;;
23988;SDS011;12202;52.136;5.592;2023-04-01T04:50:39;56.40;;;23.15;;
23988;SDS011;12202;52.136;5.592;2023-04-01T04:53:05;52.08;;;22.70;;
23988;SDS011;12202;52.136;5.592;2023-04-01T04:55:31;58.60;;;23.02;;
23988;SDS011;12202;52.136;5.592;2023-04-01T04:57:57;58.83;;;23.02;;
23988;SDS011;12202;52.136;5.592;2023-04-01T05:00:23;58.92;;;23.30;;
23988;SDS011;12202;52.136;5.592;2023-04-01T05:02:49;59.47;;;23.15;;
23988;SDS011;12202;52.136;5.592;2023-04-01T05:05:15;56.92;;;22.70;;
23988;SDS011;12202;52.136;5.592;2023-04-01T05:07:41;65.28;;;24.42;;
23988;SDS011;12202;52.136;5.592;2023-04-01T05:10:07;63.35;;;23.65;;
23988;SDS011;12202;52.136;5.592;2023-04-01T05:12:34;73.63;;;26.20;;
23988;SDS011;12202;52.136;5.592;2023-04-01T05:15:06;63.55;;;23.20;;
23988;SDS011;12202;52.136;5.592;2023-04-01T05:17:33;66.97;;;21.77;;
23988;SDS011;12202;52.136;5.592;2023-04-01T05:19:59;64.32;;;22.23;;
23988;SDS011;12202;52.136;5.592;2023-04-01T05:22:25;64.20;;;20.35;;
23988;SDS011;12202;52.136;5.592;2023-04-01T05:24:51;61.08;;;22.00;;
23988;SDS011;12202;52.136;5.592;2023-04-01T05:27:17;57.75;;;21.15;;
23988;SDS011;12202;52.136;5.592;2023-04-01T05:29:43;64.70;;;22.30;;
23988;SDS011;12202;52.136;5.592;2023-04-01T05:32:09;56.40;;;20.52;;
23988;SDS011;12202;52.136;5.592;2023-04-01T05:34:35;57.33;;;20.40;;
23988;SDS011;12202;52.136;5.592;2023-04-01T05:37:01;52.05;;;19.08;;
23988;SDS011;12202;52.136;5.592;2023-04-01T05:39:27;47.28;;;19.42;;
23988;SDS011;12202;52.136;5.592;2023-04-01T05:41:53;55.38;;;19.23;;
23988;SDS011;12202;52.136;5.592;2023-04-01T05:44:19;53.17;;;18.40;;
23988;SDS011;12202;52.136;5.592;2023-04-01T05:46:45;47.33;;;18.30;;
23988;SDS011;12202;52.136;5.592;2023-04-01T05:49:11;49.92;;;19.10;;
23988;SDS011;12202;52.136;5.592;2023-04-01T05:51:37;44.78;;;17.52;;
23988;SDS011;12202;52.136;5.592;2023-04-01T05:54:06;42.45;;;18.13;;
23988;SDS011;12202;52.136;5.592;2023-04-01T05:56:32;40.53;;;16.38;;
23988;SDS011;12202;52.136;5.592;2023-04-01T05:58:58;40.58;;;16.40;;
23988;SDS011;12202;52.136;5.592;2023-04-01T06:01:24;33.50;;;15.10;;
23988;SDS011;12202;52.136;5.592;2023-04-01T06:03:50;34.85;;;13.93;;
23988;SDS011;12202;52.136;5.592;2023-04-01T06:06:34;28.90;;;13.88;;
23988;SDS011;12202;52.136;5.592;2023-04-01T06:09:06;26.75;;;11.63;;
23988;SDS011;12202;52.136;5.592;2023-04-01T06:11:37;24.95;;;10.40;;
23988;SDS011;12202;52.136;5.592;2023-04-01T06:16:54;19.65;;;8.32;;
23988;SDS011;12202;52.136;5.592;2023-04-01T06:19:47;16.38;;;7.47;;
23988;SDS011;12202;52.136;5.592;2023-04-01T06:25:11;14.10;;;6.88;;
23988;SDS011;12202;52.136;5.592;2023-04-01T06:27:55;14.45;;;7.55;;
23988;SDS011;12202;52.136;5.592;2023-04-01T06:35:49;13.68;;;7.28;;
23988;SDS011;12202;52.136;5.592;2023-04-01T06:38:36;17.98;;;8.77;;
23988;SDS011;12202;52.136;5.592;2023-04-01T06:43:38;15.05;;;7.22;;
23988;SDS011;12202;52.136;5.592;2023-04-01T06:46:14;13.90;;;6.72;;
23988;SDS011;12202;52.136;5.592;2023-04-01T06:48:48;14.25;;;6.90;;
23988;SDS011;12202;52.136;5.592;2023-04-01T06:51:30;12.43;;;6.32;;
23988;SDS011;12202;52.136;5.592;2023-04-01T06:56:28;12.93;;;6.72;;
23988;SDS011;12202;52.136;5.592;2023-04-01T06:58:58;14.55;;;7.57;;
23988;SDS011;12202;52.136;5.592;2023-04-01T07:01:27;12.90;;;6.57;;
23988;SDS011;12202;52.136;5.592;2023-04-01T07:08:53;14.25;;;6.18;;
23988;SDS011;12202;52.136;5.592;2023-04-01T07:11:28;9.45;;;5.20;;
23988;SDS011;12202;52.136;5.592;2023-04-01T07:16:31;11.45;;;4.60;;
23988;SDS011;12202;52.136;5.592;2023-04-01T07:21:31;9.80;;;4.75;;
23988;SDS011;12202;52.136;5.592;2023-04-01T07:24:02;7.30;;;3.75;;
23988;SDS011;12202;52.136;5.592;2023-04-01T07:26:29;5.20;;;2.45;;
23988;SDS011;12202;52.136;5.592;2023-04-01T07:28:55;4.32;;;2.67;;
23988;SDS011;12202;52.136;5.592;2023-04-01T07:31:37;4.65;;;2.22;;
23988;SDS011;12202;52.136;5.592;2023-04-01T07:34:10;5.45;;;2.80;;
23988;SDS011;12202;52.136;5.592;2023-04-01T07:47:08;6.35;;;4.50;;
23988;SDS011;12202;52.136;5.592;2023-04-01T07:49:51;7.13;;;4.15;;
23988;SDS011;12202;52.136;5.592;2023-04-01T07:52:23;8.80;;;4.20;;
23988;SDS011;12202;52.136;5.592;2023-04-01T07:54:55;9.75;;;4.93;;
23988;SDS011;12202;52.136;5.592;2023-04-01T08:15:36;9.50;;;5.60;;
23988;SDS011;12202;52.136;5.592;2023-04-01T08:20:44;7.43;;;5.60;;
23988;SDS011;12202;52.136;5.592;2023-04-01T08:23:26;13.98;;;7.65;;
23988;SDS011;12202;52.136;5.592;2023-04-01T08:28:37;11.95;;;7.80;;
23988;SDS011;12202;52.136;5.592;2023-04-01T08:31:06;10.98;;;6.93;;
23988;SDS011;12202;52.136;5.592;2023-04-01T08:33:35;12.38;;;8.07;;
23988;SDS011;12202;52.136;5.592;2023-04-01T08:36:09;14.35;;;10.55;;
23988;SDS011;12202;52.136;5.592;2023-04-01T08:41:15;10.48;;;5.10;;
23988;SDS011;12202;52.136;5.592;2023-04-01T08:46:24;10.00;;;6.13;;
23988;SDS011;12202;52.136;5.592;2023-04-01T08:49:16;11.02;;;6.85;;
23988;SDS011;12202;52.136;5.592;2023-04-01T08:52:01;13.50;;;6.70;;
23988;SDS011;12202;52.136;5.592;2023-04-01T08:54:54;13.75;;;8.20;;
23988;SDS011;12202;52.136;5.592;2023-04-01T08:57:31;21.00;;;10.35;;
23988;SDS011;12202;52.136;5.592;2023-04-01T09:26:26;18.33;;;10.07;;
23988;SDS011;12202;52.136;5.592;2023-04-01T09:29:02;22.92;;;12.18;;
23988;SDS011;12202;52.136;5.592;2023-04-01T09:31:43;21.45;;;12.30;;
23988;SDS011;12202;52.136;5.592;2023-04-01T09:39:26;23.60;;;14.88;;
23988;SDS011;12202;52.136;5.592;2023-04-01T09:44:45;21.70;;;12.65;;
23988;SDS011;12202;52.136;5.592;2023-04-01T09:52:18;23.58;;;12.90;;
23988;SDS011;12202;52.136;5.592;2023-04-01T10:09:08;19.35;;;11.77;;
23988;SDS011;12202;52.136;5.592;2023-04-01T10:11:00;23.05;;;12.98;;
23988;SDS011;12202;52.136;5.592;2023-04-01T10:13:44;21.80;;;13.05;;
23988;SDS011;12202;52.136;5.592;2023-04-01T10:21:57;21.77;;;14.27;;
23988;SDS011;12202;52.136;5.592;2023-04-01T10:32:21;14.52;;;8.43;;
23988;SDS011;12202;52.136;5.592;2023-04-01T10:40:36;10.98;;;7.03;;
23988;SDS011;12202;52.136;5.592;2023-04-01T10:54:17;16.45;;;8.13;;
23988;SDS011;12202;52.136;5.592;2023-04-01T10:57:00;15.98;;;8.38;;
23988;SDS011;12202;52.136;5.592;2023-04-01T11:13:21;14.80;;;8.15;;
23988;SDS011;12202;52.136;5.592;2023-04-01T11:21:23;6.82;;;5.00;;
23988;SDS011;12202;52.136;5.592;2023-04-01T11:26:26;6.32;;;4.20;;
23988;SDS011;12202;52.136;5.592;2023-04-01T11:31:43;11.63;;;5.82;;
23988;SDS011;12202;52.136;5.592;2023-04-01T11:41:55;7.60;;;4.93;;
23988;SDS011;12202;52.136;5.592;2023-04-01T11:44:24;7.57;;;4.60;;
23988;SDS011;12202;52.136;5.592;2023-04-01T11:54:47;8.18;;;5.18;;
23988;SDS011;12202;52.136;5.592;2023-04-01T11:57:35;10.05;;;5.35;;
23988;SDS011;12202;52.136;5.592;2023-04-01T12:05:24;14.13;;;8.25;;
23988;SDS011;12202;52.136;5.592;2023-04-01T12:08:06;12.20;;;6.55;;
23988;SDS011;12202;52.136;5.592;2023-04-01T12:13:30;11.45;;;6.40;;
23988;SDS011;12202;52.136;5.592;2023-04-01T12:16:08;10.75;;;6.80;;
23988;SDS011;12202;52.136;5.592;2023-04-01T12:18:57;11.30;;;6.80;;
23988;SDS011;12202;52.136;5.592;2023-04-01T12:21:27;11.30;;;6.80;;
23988;SDS011;12202;52.136;5.592;2023-04-01T12:31:57;11.60;;;6.70;;
23988;SDS011;12202;52.136;5.592;2023-04-01T12:50:55;23.73;;;11.63;;
23988;SDS011;12202;52.136;5.592;2023-04-01T12:53:36;15.57;;;8.70;;
23988;SDS011;12202;52.136;5.592;2023-04-01T12:56:14;14.10;;;8.75;;
23988;SDS011;12202;52.136;5.592;2023-04-01T12:58:55;15.63;;;8.63;;
23988;SDS011;12202;52.136;5.592;2023-04-01T13:01:29;15.20;;;8.95;;
23988;SDS011;12202;52.136;5.592;2023-04-01T13:09:16;14.93;;;8.75;;
23988;SDS011;12202;52.136;5.592;2023-04-01T13:14:50;10.35;;;7.20;;
23988;SDS011;12202;52.136;5.592;2023-04-01T13:17:32;16.92;;;9.25;;
23988;SDS011;12202;52.136;5.592;2023-04-01T13:20:02;20.50;;;11.65;;
23988;SDS011;12202;52.136;5.592;2023-04-01T13:25:31;13.10;;;7.22;;
23988;SDS011;12202;52.136;5.592;2023-04-01T13:28:03;11.93;;;6.97;;
23988;SDS011;12202;52.136;5.592;2023-04-01T13:30:33;8.77;;;6.13;;
23988;SDS011;12202;52.136;5.592;2023-04-01T13:43:14;18.35;;;9.07;;
23988;SDS011;12202;52.136;5.592;2023-04-01T13:45:47;16.33;;;8.27;;
23988;SDS011;12202;52.136;5.592;2023-04-01T13:51:06;10.93;;;6.80;;
23988;SDS011;12202;52.136;5.592;2023-04-01T13:56:15;10.15;;;5.07;;
23988;SDS011;12202;52.136;5.592;2023-04-01T13:58:55;8.40;;;4.47;;
23988;SDS011;12202;52.136;5.592;2023-04-01T14:01:25;11.63;;;5.60;;
23988;SDS011;12202;52.136;5.592;2023-04-01T14:06:40;14.43;;;7.68;;
23988;SDS011;12202;52.136;5.592;2023-04-01T14:12:09;13.82;;;8.90;;
23988;SDS011;12202;52.136;5.592;2023-04-01T14:22:38;10.20;;;6.97;;
23988;SDS011;12202;52.136;5.592;2023-04-01T14:30:41;11.85;;;6.95;;
23988;SDS011;12202;52.136;5.592;2023-04-01T14:35:41;11.57;;;6.95;;
23988;SDS011;12202;52.136;5.592;2023-04-01T14:38:16;11.02;;;6.82;;
23988;SDS011;12202;52.136;5.592;2023-04-01T14:40:56;13.75;;;7.53;;
23988;SDS011;12202;52.136;5.592;2023-04-01T14:51:03;13.45;;;7.80;;
23988;SDS011;12202;52.136;5.592;2023-04-01T14:53:31;15.05;;;7.22;;
23988;SDS011;12202;52.136;5.592;2023-04-01T14:55:59;11.75;;;7.25;;
23988;SDS011;12202;52.136;5.592;2023-04-01T15:09:06;10.20;;;7.10;;
23988;SDS011;12202;52.136;5.592;2023-04-01T15:14:09;10.27;;;7.38;;
23988;SDS011;12202;52.136;5.592;2023-04-01T15:27:32;8.25;;;5.93;;
23988;SDS011;12202;52.136;5.592;2023-04-01T15:30:06;8.98;;;6.10;;
23988;SDS011;12202;52.136;5.592;2023-04-01T15:33:01;8.80;;;6.20;;
23988;SDS011;12202;52.136;5.592;2023-04-01T15:35:46;9.48;;;6.05;;
23988;SDS011;12202;52.136;5.592;2023-04-01T15:38:19;11.18;;;7.28;;
23988;SDS011;12202;52.136;5.592;2023-04-01T15:54:24;14.23;;;8.70;;
23988;SDS011;12202;52.136;5.592;2023-04-01T15:59:35;12.85;;;5.97;;
23988;SDS011;12202;52.136;5.592;2023-04-01T16:02:28;8.13;;;5.63;;
23988;SDS011;12202;52.136;5.592;2023-04-01T16:04:59;16.60;;;7.90;;
23988;SDS011;12202;52.136;5.592;2023-04-01T16:15:17;18.63;;;6.88;;
23988;SDS011;12202;52.136;5.592;2023-04-01T16:22:59;38.58;;;11.77;;
23988;SDS011;12202;52.136;5.592;2023-04-01T16:30:38;85.47;;;13.10;;
23988;SDS011;12202;52.136;5.592;2023-04-01T16:36:05;11.18;;;6.47;;
23988;SDS011;12202;52.136;5.592;2023-04-01T16:38:47;21.88;;;12.32;;
23988;SDS011;12202;52.136;5.592;2023-04-01T16:41:16;39.10;;;11.45;;
23988;SDS011;12202;52.136;5.592;2023-04-01T16:43:48;209.82;;;36.05;;
23988;SDS011;12202;52.136;5.592;2023-04-01T16:46:32;34.10;;;9.48;;
23988;SDS011;12202;52.136;5.592;2023-04-01T16:51:46;13.18;;;7.43;;
23988;SDS011;12202;52.136;5.592;2023-04-01T16:54:17;26.10;;;10.25;;
23988;SDS011;12202;52.136;5.592;2023-04-01T16:56:49;14.32;;;9.13;;
23988;SDS011;12202;52.136;5.592;2023-04-01T16:59:18;12.40;;;8.20;;
23988;SDS011;12202;52.136;5.592;2023-04-01T17:01:55;56.97;;;14.85;;
23988;SDS011;12202;52.136;5.592;2023-04-01T17:04:45;13.65;;;8.70;;
23988;SDS011;12202;52.136;5.592;2023-04-01T17:09:53;13.90;;;8.98;;
23988;SDS011;12202;52.136;5.592;2023-04-01T17:12:40;12.40;;;8.50;;
23988;SDS011;12202;52.136;5.592;2023-04-01T17:15:23;40.65;;;10.40;;
23988;SDS011;12202;52.136;5.592;2023-04-01T17:18:01;15.93;;;8.88;;
23988;SDS011;12202;52.136;5.592;2023-04-01T17:20:36;13.93;;;8.77;;
23988;SDS011;12202;52.136;5.592;2023-04-01T17:26:04;16.08;;;9.27;;
23988;SDS011;12202;52.136;5.592;2023-04-01T17:31:14;12.07;;;8.25;;
23988;SDS011;12202;52.136;5.592;2023-04-01T17:34:30;16.40;;;8.77;;
23988;SDS011;12202;52.136;5.592;2023-04-01T17:44:26;14.82;;;9.60;;
23988;SDS011;12202;52.136;5.592;2023-04-01T17:49:39;23.83;;;9.55;;
23988;SDS011;12202;52.136;5.592;2023-04-01T18:02:59;16.38;;;9.40;;
23988;SDS011;12202;52.136;5.592;2023-04-01T18:10:56;14.60;;;9.60;;
23988;SDS011;12202;52.136;5.592;2023-04-01T18:18:48;16.90;;;10.57;;
23988;SDS011;12202;52.136;5.592;2023-04-01T18:21:21;15.98;;;9.15;;
23988;SDS011;12202;52.136;5.592;2023-04-01T18:24:00;16.45;;;10.18;;
23988;SDS011;12202;52.136;5.592;2023-04-01T18:26:32;16.77;;;10.52;;
23988;SDS011;12202;52.136;5.592;2023-04-01T18:29:02;16.48;;;10.20;;
23988;SDS011;12202;52.136;5.592;2023-04-01T18:31:34;17.45;;;10.32;;
23988;SDS011;12202;52.136;5.592;2023-04-01T18:36:53;16.73;;;9.98;;
23988;SDS011;12202;52.136;5.592;2023-04-01T18:42:00;16.58;;;10.93;;
23988;SDS011;12202;52.136;5.592;2023-04-01T18:44:29;16.10;;;10.48;;
23988;SDS011;12202;52.136;5.592;2023-04-01T18:47:03;15.18;;;10.07;;
23988;SDS011;12202;52.136;5.592;2023-04-01T18:52:13;19.33;;;10.18;;
23988;SDS011;12202;52.136;5.592;2023-04-01T18:54:43;13.52;;;9.38;;
23988;SDS011;12202;52.136;5.592;2023-04-01T18:57:13;16.55;;;10.30;;
23988;SDS011;12202;52.136;5.592;2023-04-01T18:59:40;16.08;;;10.15;;
23988;SDS011;12202;52.136;5.592;2023-04-01T19:04:40;18.33;;;11.30;;
23988;SDS011;12202;52.136;5.592;2023-04-01T19:07:33;14.38;;;9.85;;
23988;SDS011;12202;52.136;5.592;2023-04-01T19:25:54;17.13;;;9.82;;
23988;SDS011;12202;52.136;5.592;2023-04-01T19:31:12;17.27;;;9.82;;
23988;SDS011;12202;52.136;5.592;2023-04-01T19:36:31;15.45;;;11.20;;
23988;SDS011;12202;52.136;5.592;2023-04-01T19:39:02;24.55;;;14.43;;
23988;SDS011;12202;52.136;5.592;2023-04-01T19:42:05;19.33;;;11.48;;
23988;SDS011;12202;52.136;5.592;2023-04-01T19:44:33;14.73;;;9.32;;
23988;SDS011;12202;52.136;5.592;2023-04-01T19:52:17;13.23;;;9.50;;
23988;SDS011;12202;52.136;5.592;2023-04-01T19:54:47;15.20;;;9.52;;
23988;SDS011;12202;52.136;5.592;2023-04-01T19:59:50;18.10;;;10.85;;
23988;SDS011;12202;52.136;5.592;2023-04-01T20:05:15;16.65;;;11.60;;
23988;SDS011;12202;52.136;5.592;2023-04-01T20:07:48;22.73;;;13.77;;
23988;SDS011;12202;52.136;5.592;2023-04-01T20:10:17;19.13;;;11.63;;
23988;SDS011;12202;52.136;5.592;2023-04-01T20:12:47;17.33;;;11.73;;
23988;SDS011;12202;52.136;5.592;2023-04-01T20:15:22;16.98;;;11.63;;
23988;SDS011;12202;52.136;5.592;2023-04-01T20:17:53;20.27;;;13.20;;
23988;SDS011;12202;52.136;5.592;2023-04-01T20:20:21;20.00;;;13.13;;
23988;SDS011;12202;52.136;5.592;2023-04-01T20:36:21;26.45;;;16.90;;
23988;SDS011;12202;52.136;5.592;2023-04-01T20:41:40;28.30;;;16.98;;
23988;SDS011;12202;52.136;5.592;2023-04-01T20:46:51;33.97;;;18.55;;
23988;SDS011;12202;52.136;5.592;2023-04-01T20:57:18;30.50;;;17.10;;
23988;SDS011;12202;52.136;5.592;2023-04-01T20:59:54;31.40;;;15.98;;
23988;SDS011;12202;52.136;5.592;2023-04-01T21:15:37;29.35;;;16.17;;
23988;SDS011;12202;52.136;5.592;2023-04-01T21:18:11;25.85;;;15.32;;
23988;SDS011;12202;52.136;5.592;2023-04-01T21:20:44;27.88;;;15.45;;
23988;SDS011;12202;52.136;5.592;2023-04-01T21:23:31;26.67;;;15.00;;
23988;SDS011;12202;52.136;5.592;2023-04-01T21:31:24;23.95;;;14.82;;
23988;SDS011;12202;52.136;5.592;2023-04-01T21:55:59;27.23;;;15.82;;
23988;SDS011;12202;52.136;5.592;2023-04-01T22:00:48;28.65;;;15.70;;
23988;SDS011;12202;52.136;5.592;2023-04-01T22:03:28;31.85;;;16.15;;
23988;SDS011;12202;52.136;5.592;2023-04-01T22:08:44;28.35;;;15.65;;
23988;SDS011;12202;52.136;5.592;2023-04-01T22:14:09;27.77;;;15.80;;
23988;SDS011;12202;52.136;5.592;2023-04-01T22:27:21;28.48;;;17.48;;
23988;SDS011;12202;52.136;5.592;2023-04-01T22:32:28;30.90;;;18.73;;
23988;SDS011;12202;52.136;5.592;2023-04-01T22:37:35;34.47;;;20.13;;
23988;SDS011;12202;52.136;5.592;2023-04-01T22:42:51;30.02;;;18.52;;
23988;SDS011;12202;52.136;5.592;2023-04-01T22:51:10;33.13;;;18.60;;
23988;SDS011;12202;52.136;5.592;2023-04-01T22:56:05;33.42;;;18.52;;
23988;SDS011;12202;52.136;5.592;2023-04-01T22:58:40;26.50;;;17.60;;
23988;SDS011;12202;52.136;5.592;2023-04-01T23:01:12;32.40;;;18.30;;
23988;SDS011;12202;52.136;5.592;2023-04-01T23:03:40;37.92;;;20.33;;
23988;SDS011;12202;52.136;5.592;2023-04-01T23:06:09;33.15;;;19.95;;
23988;SDS011;12202;52.136;5.592;2023-04-01T23:11:29;36.20;;;20.23;;
23988;SDS011;12202;52.136;5.592;2023-04-01T23:16:29;37.15;;;20.17;;
23988;SDS011;12202;52.136;5.592;2023-04-01T23:19:02;41.00;;;22.85;;
23988;SDS011;12202;52.136;5.592;2023-04-01T23:21:51;36.55;;;22.60;;
23988;SDS011;12202;52.136;5.592;2023-04-01T23:27:10;36.95;;;22.58;;
23988;SDS011;12202;52.136;5.592;2023-04-01T23:29:38;37.42;;;20.13;;
23988;SDS011;12202;52.136;5.592;2023-04-01T23:32:18;38.25;;;20.90;;
23988;SDS011;12202;52.136;5.592;2023-04-01T23:34:46;33.20;;;20.23;;
23988;SDS011;12202;52.136;5.592;2023-04-01T23:37:13;42.72;;;23.48;;
23988;SDS011;12202;52.136;5.592;2023-04-01T23:39:43;37.63;;;20.95;;
23988;SDS011;12202;52.136;5.592;2023-04-01T23:42:14;39.55;;;21.55;;
23988;SDS011;12202;52.136;5.592;2023-04-01T23:44:41;38.42;;;21.40;;
23988;SDS011;12202;52.136;5.592;2023-04-01T23:47:10;36.25;;;21.02;;
23988;SDS011;12202;52.136;5.592;2023-04-01T23:49:41;36.65;;;21.35;;
23988;SDS011;12202;52.136;5.592;2023-04-01T23:52:13;33.85;;;21.02;;
23988;SDS011;12202;52.136;5.592;2023-04-01T23:54:44;35.85;;;20.52;;
23988;SDS011;12202;52.136;5.592;2023-04-01T23:57:18;33.83;;;21.05;;